La Romana, Dominican Republic
Current Conditions -  °F | °C
As of 10:00 AM on Thursday 30 Oct 2014 (Local Time) from MDLR Reporting Station
Scattered Clouds Scattered Clouds  
Wind Chill: 86°   Ceiling: Unl
Heat Index: 92°   Visibility: 6mi
Dew Point: 72°   Wind: 9mph
Humidity: 62%   Direction: 90°E
Pressure: 29.85"   Gusts: NA
Location:  18.43°N, 68.97°W
Report Text: MDLR 301400Z 09008KT 9999 SCT021 30/22 Q1011
Loading
Personal Weather Stations






























Interactive Weather Map
Tropical Storm Tracking
New forecast layout! Learn more

10-Day Weather Forecast

Advertisements
Track Severe Weather on mobile